Accueil
METAR-TAF:

METAR-TAF

Aéroports :

Decimomannu, Italie

latitude: 39-21N, longitude: 008-58E, altitude: 29 m

Observation

Le bulletin a été fait il y a 28 minutes, à 23:55 UTC
Vent 3 kt de nord/nord-ouest
Température 24°C
Humidité 89%
Pression 1011 hPa
Visibilité 10 km ou plus
pas de nuages en-dessous de 1500 mètres et pas de cumulonimbus.

METAR: LIED 032355Z 33003KT CAVOK 24/22 Q1011 RMK SCT SCT200 VIS MIN 9999 WIND THR35 34003KT WIND THR17 02003KT BLU

Heure: 02:23 (00:23 UTC)

Prévision

Le bulletin a été fait il y a 1 heure et 23 minutes, à 23:00 UTC
Prévision valable du 04 à 00 UTC au 04 à 09 UTC
Vent 5 kt de nord-ouest
Visibilité 10 km ou plus
pas de nuages en-dessous de 1500 mètres et pas de cumulonimbus.

TAF: LIED 032300Z 0400/0409 32005KT CAVOK

Observations et prévisions météorologiques de plus de 4000 aéroports (messages METAR et TAF).

Les stations disponibles sont représentées par des disques jaunes et rouges sur la carte.

Passer la souris dessus pour voir le nom de la station.

Cliquer dessus pour voir les observations et prévisions météorologiques.

Pour changer de carte: cliquez sur les boutons verts avec une croix noire pour zoomer, sur le bouton vert avec un tiret pour effectuer un zoom arrière, ou sur les flèches vertes pour les cartes adjacentes.


METAR-TAF: